sensor_id;sensor_type;location;lat;lon;timestamp;P1;durP1;ratioP1;P2;durP2;ratioP2
16117;SDS011;8163;50.118;5.342;2023-07-24T00:01:29;0.30;;;0.30;;
16117;SDS011;8163;50.118;5.342;2023-07-24T00:03:56;0.30;;;0.30;;
16117;SDS011;8163;50.118;5.342;2023-07-24T00:06:24;0.20;;;0.20;;
16117;SDS011;8163;50.118;5.342;2023-07-24T00:08:51;0.25;;;0.25;;
16117;SDS011;8163;50.118;5.342;2023-07-24T00:11:18;0.30;;;0.30;;
16117;SDS011;8163;50.118;5.342;2023-07-24T00:13:46;0.20;;;0.20;;
16117;SDS011;8163;50.118;5.342;2023-07-24T00:16:13;0.20;;;0.20;;
16117;SDS011;8163;50.118;5.342;2023-07-24T00:18:40;0.30;;;0.30;;
16117;SDS011;8163;50.118;5.342;2023-07-24T00:21:07;0.30;;;0.30;;
16117;SDS011;8163;50.118;5.342;2023-07-24T00:23:35;0.30;;;0.30;;
16117;SDS011;8163;50.118;5.342;2023-07-24T00:26:03;0.30;;;0.30;;
16117;SDS011;8163;50.118;5.342;2023-07-24T00:28:30;0.30;;;0.30;;
16117;SDS011;8163;50.118;5.342;2023-07-24T00:30:59;0.30;;;0.30;;
16117;SDS011;8163;50.118;5.342;2023-07-24T00:33:27;0.30;;;0.30;;
16117;SDS011;8163;50.118;5.342;2023-07-24T00:35:55;0.30;;;0.30;;
16117;SDS011;8163;50.118;5.342;2023-07-24T00:38:23;0.30;;;0.30;;
16117;SDS011;8163;50.118;5.342;2023-07-24T00:40:50;0.30;;;0.30;;
16117;SDS011;8163;50.118;5.342;2023-07-24T00:43:19;0.30;;;0.30;;
16117;SDS011;8163;50.118;5.342;2023-07-24T00:45:46;0.30;;;0.30;;
16117;SDS011;8163;50.118;5.342;2023-07-24T00:48:15;0.30;;;0.30;;
16117;SDS011;8163;50.118;5.342;2023-07-24T00:50:43;0.30;;;0.30;;
16117;SDS011;8163;50.118;5.342;2023-07-24T00:53:12;0.30;;;0.30;;
16117;SDS011;8163;50.118;5.342;2023-07-24T00:55:41;0.30;;;0.30;;
16117;SDS011;8163;50.118;5.342;2023-07-24T00:58:10;0.30;;;0.30;;
16117;SDS011;8163;50.118;5.342;2023-07-24T01:00:38;0.30;;;0.30;;
16117;SDS011;8163;50.118;5.342;2023-07-24T01:03:07;0.30;;;0.30;;
16117;SDS011;8163;50.118;5.342;2023-07-24T01:05:35;0.30;;;0.30;;
16117;SDS011;8163;50.118;5.342;2023-07-24T01:08:02;0.30;;;0.30;;
16117;SDS011;8163;50.118;5.342;2023-07-24T01:10:30;0.30;;;0.30;;
16117;SDS011;8163;50.118;5.342;2023-07-24T01:12:58;0.30;;;0.30;;
16117;SDS011;8163;50.118;5.342;2023-07-24T01:15:29;0.38;;;0.38;;
16117;SDS011;8163;50.118;5.342;2023-07-24T01:17:59;0.30;;;0.30;;
16117;SDS011;8163;50.118;5.342;2023-07-24T01:20:29;0.38;;;0.38;;
16117;SDS011;8163;50.118;5.342;2023-07-24T01:23:09;0.30;;;0.30;;
16117;SDS011;8163;50.118;5.342;2023-07-24T01:25:49;0.30;;;0.30;;
16117;SDS011;8163;50.118;5.342;2023-07-24T01:28:22;0.40;;;0.40;;
16117;SDS011;8163;50.118;5.342;2023-07-24T01:30:49;0.30;;;0.30;;
16117;SDS011;8163;50.118;5.342;2023-07-24T01:33:16;0.40;;;0.40;;
16117;SDS011;8163;50.118;5.342;2023-07-24T01:35:43;0.30;;;0.30;;
16117;SDS011;8163;50.118;5.342;2023-07-24T01:38:11;0.20;;;0.20;;
16117;SDS011;8163;50.118;5.342;2023-07-24T01:40:39;0.30;;;0.30;;
16117;SDS011;8163;50.118;5.342;2023-07-24T01:43:08;0.30;;;0.30;;
16117;SDS011;8163;50.118;5.342;2023-07-24T01:45:35;0.30;;;0.30;;
16117;SDS011;8163;50.118;5.342;2023-07-24T01:48:03;0.30;;;0.30;;
16117;SDS011;8163;50.118;5.342;2023-07-24T01:50:30;0.47;;;0.47;;
16117;SDS011;8163;50.118;5.342;2023-07-24T01:52:58;0.30;;;0.30;;
16117;SDS011;8163;50.118;5.342;2023-07-24T01:55:24;0.35;;;0.35;;
16117;SDS011;8163;50.118;5.342;2023-07-24T01:57:53;0.20;;;0.20;;
16117;SDS011;8163;50.118;5.342;2023-07-24T02:00:22;0.30;;;0.30;;
16117;SDS011;8163;50.118;5.342;2023-07-24T02:02:49;0.38;;;0.38;;
16117;SDS011;8163;50.118;5.342;2023-07-24T02:05:16;0.30;;;0.30;;
16117;SDS011;8163;50.118;5.342;2023-07-24T02:07:43;0.28;;;0.28;;
16117;SDS011;8163;50.118;5.342;2023-07-24T02:10:10;0.30;;;0.30;;
16117;SDS011;8163;50.118;5.342;2023-07-24T02:12:37;0.32;;;0.32;;
16117;SDS011;8163;50.118;5.342;2023-07-24T02:15:04;0.40;;;0.40;;
16117;SDS011;8163;50.118;5.342;2023-07-24T02:17:35;0.30;;;0.30;;
16117;SDS011;8163;50.118;5.342;2023-07-24T02:20:02;0.30;;;0.30;;
16117;SDS011;8163;50.118;5.342;2023-07-24T02:22:29;0.30;;;0.30;;
16117;SDS011;8163;50.118;5.342;2023-07-24T02:24:56;0.30;;;0.30;;
16117;SDS011;8163;50.118;5.342;2023-07-24T02:27:27;0.30;;;0.30;;
16117;SDS011;8163;50.118;5.342;2023-07-24T02:29:56;0.40;;;0.40;;
16117;SDS011;8163;50.118;5.342;2023-07-24T02:32:23;0.30;;;0.30;;
16117;SDS011;8163;50.118;5.342;2023-07-24T02:34:52;0.30;;;0.30;;
16117;SDS011;8163;50.118;5.342;2023-07-24T02:37:19;0.30;;;0.30;;
16117;SDS011;8163;50.118;5.342;2023-07-24T02:39:46;0.30;;;0.30;;
16117;SDS011;8163;50.118;5.342;2023-07-24T02:42:15;0.30;;;0.30;;
16117;SDS011;8163;50.118;5.342;2023-07-24T02:44:42;0.40;;;0.40;;
16117;SDS011;8163;50.118;5.342;2023-07-24T02:47:09;0.30;;;0.30;;
16117;SDS011;8163;50.118;5.342;2023-07-24T02:49:37;0.30;;;0.30;;
16117;SDS011;8163;50.118;5.342;2023-07-24T02:52:06;0.40;;;0.40;;
16117;SDS011;8163;50.118;5.342;2023-07-24T02:54:33;0.30;;;0.30;;
16117;SDS011;8163;50.118;5.342;2023-07-24T02:57:00;0.43;;;0.43;;
16117;SDS011;8163;50.118;5.342;2023-07-24T02:59:28;0.40;;;0.40;;
16117;SDS011;8163;50.118;5.342;2023-07-24T03:01:56;0.40;;;0.40;;
16117;SDS011;8163;50.118;5.342;2023-07-24T03:04:24;0.30;;;0.30;;
16117;SDS011;8163;50.118;5.342;2023-07-24T03:06:50;0.40;;;0.40;;
16117;SDS011;8163;50.118;5.342;2023-07-24T03:09:19;0.40;;;0.40;;
16117;SDS011;8163;50.118;5.342;2023-07-24T03:11:46;0.30;;;0.30;;
16117;SDS011;8163;50.118;5.342;2023-07-24T03:14:13;0.30;;;0.30;;
16117;SDS011;8163;50.118;5.342;2023-07-24T03:16:40;0.38;;;0.38;;
16117;SDS011;8163;50.118;5.342;2023-07-24T03:19:07;0.30;;;0.30;;
16117;SDS011;8163;50.118;5.342;2023-07-24T03:21:35;0.32;;;0.32;;
16117;SDS011;8163;50.118;5.342;2023-07-24T03:24:03;0.30;;;0.30;;
16117;SDS011;8163;50.118;5.342;2023-07-24T03:26:32;0.30;;;0.30;;
16117;SDS011;8163;50.118;5.342;2023-07-24T03:29:04;0.40;;;0.40;;
16117;SDS011;8163;50.118;5.342;2023-07-24T03:31:31;0.30;;;0.30;;
16117;SDS011;8163;50.118;5.342;2023-07-24T03:33:58;0.40;;;0.40;;
16117;SDS011;8163;50.118;5.342;2023-07-24T03:36:26;0.35;;;0.35;;
16117;SDS011;8163;50.118;5.342;2023-07-24T03:38:53;0.30;;;0.30;;
16117;SDS011;8163;50.118;5.342;2023-07-24T03:41:20;0.30;;;0.30;;
16117;SDS011;8163;50.118;5.342;2023-07-24T03:43:49;0.40;;;0.40;;
16117;SDS011;8163;50.118;5.342;2023-07-24T03:46:16;0.30;;;0.30;;
16117;SDS011;8163;50.118;5.342;2023-07-24T03:48:43;0.30;;;0.30;;
16117;SDS011;8163;50.118;5.342;2023-07-24T03:51:10;0.40;;;0.40;;
16117;SDS011;8163;50.118;5.342;2023-07-24T03:53:37;0.30;;;0.30;;
16117;SDS011;8163;50.118;5.342;2023-07-24T03:56:04;0.30;;;0.30;;
16117;SDS011;8163;50.118;5.342;2023-07-24T03:58:31;0.30;;;0.30;;
16117;SDS011;8163;50.118;5.342;2023-07-24T04:00:59;0.30;;;0.30;;
16117;SDS011;8163;50.118;5.342;2023-07-24T04:03:26;0.32;;;0.32;;
16117;SDS011;8163;50.118;5.342;2023-07-24T04:05:54;0.30;;;0.30;;
16117;SDS011;8163;50.118;5.342;2023-07-24T04:10:50;0.40;;;0.40;;
16117;SDS011;8163;50.118;5.342;2023-07-24T04:13:17;0.30;;;0.30;;
16117;SDS011;8163;50.118;5.342;2023-07-24T04:15:44;0.30;;;0.30;;
16117;SDS011;8163;50.118;5.342;2023-07-24T04:18:13;0.40;;;0.40;;
16117;SDS011;8163;50.118;5.342;2023-07-24T04:20:40;0.30;;;0.30;;
16117;SDS011;8163;50.118;5.342;2023-07-24T04:23:07;0.40;;;0.40;;
16117;SDS011;8163;50.118;5.342;2023-07-24T04:25:34;0.30;;;0.30;;
16117;SDS011;8163;50.118;5.342;2023-07-24T04:28:00;0.30;;;0.30;;
16117;SDS011;8163;50.118;5.342;2023-07-24T04:30:27;0.30;;;0.30;;
16117;SDS011;8163;50.118;5.342;2023-07-24T04:32:54;0.20;;;0.20;;
16117;SDS011;8163;50.118;5.342;2023-07-24T04:35:23;0.20;;;0.20;;
16117;SDS011;8163;50.118;5.342;2023-07-24T04:37:50;0.30;;;0.30;;
16117;SDS011;8163;50.118;5.342;2023-07-24T04:40:17;0.30;;;0.30;;
16117;SDS011;8163;50.118;5.342;2023-07-24T04:42:44;0.20;;;0.20;;
16117;SDS011;8163;50.118;5.342;2023-07-24T04:45:12;0.20;;;0.20;;
16117;SDS011;8163;50.118;5.342;2023-07-24T04:47:42;0.20;;;0.20;;
16117;SDS011;8163;50.118;5.342;2023-07-24T04:50:09;0.30;;;0.30;;
16117;SDS011;8163;50.118;5.342;2023-07-24T04:52:39;0.20;;;0.20;;
16117;SDS011;8163;50.118;5.342;2023-07-24T04:55:06;0.20;;;0.20;;
16117;SDS011;8163;50.118;5.342;2023-07-24T04:57:33;0.20;;;0.20;;
16117;SDS011;8163;50.118;5.342;2023-07-24T05:00:00;0.20;;;0.20;;
16117;SDS011;8163;50.118;5.342;2023-07-24T05:02:27;0.22;;;0.22;;
16117;SDS011;8163;50.118;5.342;2023-07-24T05:04:54;0.25;;;0.25;;
16117;SDS011;8163;50.118;5.342;2023-07-24T05:07:21;0.20;;;0.20;;
16117;SDS011;8163;50.118;5.342;2023-07-24T05:09:49;0.20;;;0.20;;
16117;SDS011;8163;50.118;5.342;2023-07-24T05:12:16;0.20;;;0.20;;
16117;SDS011;8163;50.118;5.342;2023-07-24T05:14:43;0.20;;;0.20;;
16117;SDS011;8163;50.118;5.342;2023-07-24T05:17:10;0.20;;;0.20;;
16117;SDS011;8163;50.118;5.342;2023-07-24T05:19:37;0.20;;;0.20;;
16117;SDS011;8163;50.118;5.342;2023-07-24T05:22:04;0.30;;;0.30;;
16117;SDS011;8163;50.118;5.342;2023-07-24T05:24:32;0.30;;;0.30;;
16117;SDS011;8163;50.118;5.342;2023-07-24T05:27:00;0.30;;;0.30;;
16117;SDS011;8163;50.118;5.342;2023-07-24T05:29:27;0.30;;;0.30;;
16117;SDS011;8163;50.118;5.342;2023-07-24T05:31:54;0.30;;;0.30;;
16117;SDS011;8163;50.118;5.342;2023-07-24T05:34:22;0.30;;;0.30;;
16117;SDS011;8163;50.118;5.342;2023-07-24T05:36:49;0.30;;;0.30;;
16117;SDS011;8163;50.118;5.342;2023-07-24T05:39:16;0.30;;;0.30;;
16117;SDS011;8163;50.118;5.342;2023-07-24T05:41:43;0.30;;;0.30;;
16117;SDS011;8163;50.118;5.342;2023-07-24T05:44:11;0.20;;;0.20;;
16117;SDS011;8163;50.118;5.342;2023-07-24T05:46:38;0.20;;;0.20;;
16117;SDS011;8163;50.118;5.342;2023-07-24T05:49:05;0.20;;;0.20;;
16117;SDS011;8163;50.118;5.342;2023-07-24T05:51:32;0.30;;;0.30;;
16117;SDS011;8163;50.118;5.342;2023-07-24T05:54:02;0.40;;;0.40;;
16117;SDS011;8163;50.118;5.342;2023-07-24T05:56:29;0.20;;;0.20;;
16117;SDS011;8163;50.118;5.342;2023-07-24T05:58:56;0.20;;;0.20;;
16117;SDS011;8163;50.118;5.342;2023-07-24T06:01:24;0.20;;;0.20;;
16117;SDS011;8163;50.118;5.342;2023-07-24T06:03:51;0.30;;;0.30;;
16117;SDS011;8163;50.118;5.342;2023-07-24T06:06:18;0.50;;;0.50;;
16117;SDS011;8163;50.118;5.342;2023-07-24T06:08:46;0.30;;;0.30;;
16117;SDS011;8163;50.118;5.342;2023-07-24T06:11:13;0.30;;;0.30;;
16117;SDS011;8163;50.118;5.342;2023-07-24T06:13:40;0.30;;;0.30;;
16117;SDS011;8163;50.118;5.342;2023-07-24T06:16:07;0.20;;;0.20;;
16117;SDS011;8163;50.118;5.342;2023-07-24T06:18:35;0.30;;;0.30;;
16117;SDS011;8163;50.118;5.342;2023-07-24T06:21:02;0.30;;;0.30;;
16117;SDS011;8163;50.118;5.342;2023-07-24T06:23:29;0.30;;;0.30;;
16117;SDS011;8163;50.118;5.342;2023-07-24T06:25:56;0.20;;;0.20;;
16117;SDS011;8163;50.118;5.342;2023-07-24T06:28:23;0.45;;;0.45;;
16117;SDS011;8163;50.118;5.342;2023-07-24T06:30:51;0.20;;;0.20;;
16117;SDS011;8163;50.118;5.342;2023-07-24T06:33:19;0.30;;;0.30;;
16117;SDS011;8163;50.118;5.342;2023-07-24T06:35:47;0.20;;;0.20;;
16117;SDS011;8163;50.118;5.342;2023-07-24T06:38:14;0.20;;;0.20;;
16117;SDS011;8163;50.118;5.342;2023-07-24T06:40:42;0.63;;;0.63;;
16117;SDS011;8163;50.118;5.342;2023-07-24T06:43:09;0.20;;;0.20;;
16117;SDS011;8163;50.118;5.342;2023-07-24T06:45:38;0.20;;;0.20;;
16117;SDS011;8163;50.118;5.342;2023-07-24T06:48:05;0.20;;;0.20;;
16117;SDS011;8163;50.118;5.342;2023-07-24T06:50:32;0.10;;;0.10;;
16117;SDS011;8163;50.118;5.342;2023-07-24T06:53:00;0.10;;;0.10;;
16117;SDS011;8163;50.118;5.342;2023-07-24T06:55:28;0.10;;;0.10;;
16117;SDS011;8163;50.118;5.342;2023-07-24T06:57:55;0.10;;;0.10;;
16117;SDS011;8163;50.118;5.342;2023-07-24T07:00:22;0.10;;;0.10;;
16117;SDS011;8163;50.118;5.342;2023-07-24T07:02:49;0.00;;;0.00;;
16117;SDS011;8163;50.118;5.342;2023-07-24T07:05:18;0.10;;;0.10;;
16117;SDS011;8163;50.118;5.342;2023-07-24T07:07:46;0.10;;;0.10;;
16117;SDS011;8163;50.118;5.342;2023-07-24T07:10:15;0.20;;;0.20;;
16117;SDS011;8163;50.118;5.342;2023-07-24T07:12:42;0.10;;;0.10;;
16117;SDS011;8163;50.118;5.342;2023-07-24T07:15:10;0.03;;;0.03;;
16117;SDS011;8163;50.118;5.342;2023-07-24T07:17:37;0.20;;;0.20;;
16117;SDS011;8163;50.118;5.342;2023-07-24T07:20:05;0.10;;;0.10;;
16117;SDS011;8163;50.118;5.342;2023-07-24T07:22:33;0.20;;;0.20;;
16117;SDS011;8163;50.118;5.342;2023-07-24T07:25:01;0.17;;;0.17;;
16117;SDS011;8163;50.118;5.342;2023-07-24T07:27:29;0.20;;;0.20;;
16117;SDS011;8163;50.118;5.342;2023-07-24T07:29:56;0.20;;;0.20;;
16117;SDS011;8163;50.118;5.342;2023-07-24T07:32:23;0.30;;;0.30;;
16117;SDS011;8163;50.118;5.342;2023-07-24T07:34:50;0.20;;;0.20;;
16117;SDS011;8163;50.118;5.342;2023-07-24T07:37:17;0.30;;;0.30;;
16117;SDS011;8163;50.118;5.342;2023-07-24T07:39:44;0.20;;;0.20;;
16117;SDS011;8163;50.118;5.342;2023-07-24T07:42:11;0.30;;;0.30;;
16117;SDS011;8163;50.118;5.342;2023-07-24T07:44:39;0.30;;;0.30;;
16117;SDS011;8163;50.118;5.342;2023-07-24T07:47:07;0.20;;;0.20;;
16117;SDS011;8163;50.118;5.342;2023-07-24T07:49:34;0.20;;;0.20;;
16117;SDS011;8163;50.118;5.342;2023-07-24T07:52:01;0.20;;;0.20;;
16117;SDS011;8163;50.118;5.342;2023-07-24T07:54:28;0.22;;;0.22;;
16117;SDS011;8163;50.118;5.342;2023-07-24T07:56:54;0.30;;;0.30;;
16117;SDS011;8163;50.118;5.342;2023-07-24T07:59:21;0.20;;;0.20;;
16117;SDS011;8163;50.118;5.342;2023-07-24T08:01:50;0.20;;;0.20;;
16117;SDS011;8163;50.118;5.342;2023-07-24T08:04:17;0.20;;;0.20;;
16117;SDS011;8163;50.118;5.342;2023-07-24T08:06:44;0.20;;;0.20;;
16117;SDS011;8163;50.118;5.342;2023-07-24T08:09:10;0.20;;;0.20;;
16117;SDS011;8163;50.118;5.342;2023-07-24T08:11:37;0.28;;;0.28;;
16117;SDS011;8163;50.118;5.342;2023-07-24T08:14:05;0.20;;;0.20;;
16117;SDS011;8163;50.118;5.342;2023-07-24T08:16:32;0.20;;;0.20;;
16117;SDS011;8163;50.118;5.342;2023-07-24T08:19:00;0.20;;;0.20;;
16117;SDS011;8163;50.118;5.342;2023-07-24T08:21:27;0.32;;;0.32;;
16117;SDS011;8163;50.118;5.342;2023-07-24T08:23:54;0.20;;;0.20;;
16117;SDS011;8163;50.118;5.342;2023-07-24T08:26:22;0.20;;;0.20;;
16117;SDS011;8163;50.118;5.342;2023-07-24T08:28:51;0.20;;;0.20;;
16117;SDS011;8163;50.118;5.342;2023-07-24T08:31:19;0.13;;;0.13;;
16117;SDS011;8163;50.118;5.342;2023-07-24T08:33:46;0.10;;;0.10;;
16117;SDS011;8163;50.118;5.342;2023-07-24T08:36:14;0.30;;;0.30;;
16117;SDS011;8163;50.118;5.342;2023-07-24T08:38:41;0.10;;;0.10;;
16117;SDS011;8163;50.118;5.342;2023-07-24T08:41:09;0.10;;;0.10;;
16117;SDS011;8163;50.118;5.342;2023-07-24T08:43:38;0.10;;;0.10;;
16117;SDS011;8163;50.118;5.342;2023-07-24T08:46:06;0.20;;;0.20;;
16117;SDS011;8163;50.118;5.342;2023-07-24T08:48:34;0.10;;;0.10;;
16117;SDS011;8163;50.118;5.342;2023-07-24T08:51:02;0.47;;;0.47;;
16117;SDS011;8163;50.118;5.342;2023-07-24T08:53:30;0.20;;;0.20;;
16117;SDS011;8163;50.118;5.342;2023-07-24T08:56:01;0.10;;;0.10;;
16117;SDS011;8163;50.118;5.342;2023-07-24T08:58:29;0.10;;;0.10;;
16117;SDS011;8163;50.118;5.342;2023-07-24T09:00:56;0.10;;;0.10;;
16117;SDS011;8163;50.118;5.342;2023-07-24T09:03:23;0.20;;;0.20;;
16117;SDS011;8163;50.118;5.342;2023-07-24T09:05:50;0.10;;;0.10;;
16117;SDS011;8163;50.118;5.342;2023-07-24T09:08:27;0.17;;;0.17;;
16117;SDS011;8163;50.118;5.342;2023-07-24T09:10:56;0.20;;;0.20;;
16117;SDS011;8163;50.118;5.342;2023-07-24T09:13:23;0.10;;;0.10;;
16117;SDS011;8163;50.118;5.342;2023-07-24T09:15:50;0.10;;;0.10;;
16117;SDS011;8163;50.118;5.342;2023-07-24T09:18:17;0.10;;;0.10;;
16117;SDS011;8163;50.118;5.342;2023-07-24T09:20:45;0.10;;;0.10;;
16117;SDS011;8163;50.118;5.342;2023-07-24T09:23:12;0.10;;;0.10;;
16117;SDS011;8163;50.118;5.342;2023-07-24T09:25:41;0.10;;;0.10;;
16117;SDS011;8163;50.118;5.342;2023-07-24T09:28:11;0.20;;;0.20;;
16117;SDS011;8163;50.118;5.342;2023-07-24T09:30:38;0.15;;;0.15;;
16117;SDS011;8163;50.118;5.342;2023-07-24T09:33:07;0.20;;;0.20;;
16117;SDS011;8163;50.118;5.342;2023-07-24T09:35:34;0.10;;;0.10;;
16117;SDS011;8163;50.118;5.342;2023-07-24T09:38:03;0.20;;;0.20;;
16117;SDS011;8163;50.118;5.342;2023-07-24T09:40:38;0.20;;;0.20;;
16117;SDS011;8163;50.118;5.342;2023-07-24T09:43:21;0.10;;;0.10;;
16117;SDS011;8163;50.118;5.342;2023-07-24T09:45:51;0.20;;;0.20;;
16117;SDS011;8163;50.118;5.342;2023-07-24T09:48:21;0.20;;;0.20;;
16117;SDS011;8163;50.118;5.342;2023-07-24T09:50:52;0.10;;;0.10;;
16117;SDS011;8163;50.118;5.342;2023-07-24T09:53:21;0.15;;;0.15;;
16117;SDS011;8163;50.118;5.342;2023-07-24T09:56:01;0.17;;;0.17;;
16117;SDS011;8163;50.118;5.342;2023-07-24T09:58:30;0.10;;;0.10;;
16117;SDS011;8163;50.118;5.342;2023-07-24T10:00:59;0.20;;;0.20;;
16117;SDS011;8163;50.118;5.342;2023-07-24T10:03:28;0.20;;;0.20;;
16117;SDS011;8163;50.118;5.342;2023-07-24T10:05:56;0.20;;;0.20;;
16117;SDS011;8163;50.118;5.342;2023-07-24T10:08:23;0.10;;;0.10;;
16117;SDS011;8163;50.118;5.342;2023-07-24T10:10:57;0.13;;;0.13;;
16117;SDS011;8163;50.118;5.342;2023-07-24T10:13:25;0.30;;;0.30;;
16117;SDS011;8163;50.118;5.342;2023-07-24T10:15:55;0.10;;;0.10;;
16117;SDS011;8163;50.118;5.342;2023-07-24T10:18:25;0.10;;;0.10;;
16117;SDS011;8163;50.118;5.342;2023-07-24T10:20:59;0.10;;;0.10;;
16117;SDS011;8163;50.118;5.342;2023-07-24T10:23:27;0.10;;;0.10;;
16117;SDS011;8163;50.118;5.342;2023-07-24T10:25:54;0.20;;;0.20;;
16117;SDS011;8163;50.118;5.342;2023-07-24T11:02:09;0.10;;;0.10;;
16117;SDS011;8163;50.118;5.342;2023-07-24T11:04:37;0.10;;;0.10;;
16117;SDS011;8163;50.118;5.342;2023-07-24T11:07:07;0.10;;;0.10;;
16117;SDS011;8163;50.118;5.342;2023-07-24T11:09:34;0.20;;;0.20;;
16117;SDS011;8163;50.118;5.342;2023-07-24T11:12:09;0.10;;;0.10;;
16117;SDS011;8163;50.118;5.342;2023-07-24T11:14:47;0.00;;;0.00;;
16117;SDS011;8163;50.118;5.342;2023-07-24T11:17:20;0.10;;;0.10;;
16117;SDS011;8163;50.118;5.342;2023-07-24T11:19:48;0.10;;;0.10;;
16117;SDS011;8163;50.118;5.342;2023-07-24T11:22:21;0.10;;;0.10;;
16117;SDS011;8163;50.118;5.342;2023-07-24T11:24:48;0.10;;;0.10;;
16117;SDS011;8163;50.118;5.342;2023-07-24T11:27:15;0.10;;;0.10;;
16117;SDS011;8163;50.118;5.342;2023-07-24T11:29:47;0.10;;;0.10;;
16117;SDS011;8163;50.118;5.342;2023-07-24T11:32:18;0.10;;;0.10;;
16117;SDS011;8163;50.118;5.342;2023-07-24T11:34:49;0.10;;;0.10;;
16117;SDS011;8163;50.118;5.342;2023-07-24T11:37:21;0.20;;;0.20;;
16117;SDS011;8163;50.118;5.342;2023-07-24T11:39:57;0.10;;;0.10;;
16117;SDS011;8163;50.118;5.342;2023-07-24T11:42:25;0.10;;;0.10;;
16117;SDS011;8163;50.118;5.342;2023-07-24T11:44:53;0.10;;;0.10;;
16117;SDS011;8163;50.118;5.342;2023-07-24T11:47:22;0.10;;;0.10;;
16117;SDS011;8163;50.118;5.342;2023-07-24T11:49:56;0.00;;;0.00;;
16117;SDS011;8163;50.118;5.342;2023-07-24T11:52:24;0.10;;;0.10;;
16117;SDS011;8163;50.118;5.342;2023-07-24T11:54:58;0.20;;;0.20;;
16117;SDS011;8163;50.118;5.342;2023-07-24T11:57:28;0.10;;;0.10;;
16117;SDS011;8163;50.118;5.342;2023-07-24T11:59:56;0.00;;;0.00;;
16117;SDS011;8163;50.118;5.342;2023-07-24T12:02:25;0.10;;;0.10;;
16117;SDS011;8163;50.118;5.342;2023-07-24T12:04:55;0.20;;;0.20;;
16117;SDS011;8163;50.118;5.342;2023-07-24T12:07:28;0.10;;;0.10;;
16117;SDS011;8163;50.118;5.342;2023-07-24T12:09:56;0.10;;;0.10;;
16117;SDS011;8163;50.118;5.342;2023-07-24T12:12:25;0.10;;;0.10;;
16117;SDS011;8163;50.118;5.342;2023-07-24T12:15:02;0.05;;;0.05;;
16117;SDS011;8163;50.118;5.342;2023-07-24T12:17:32;0.10;;;0.10;;
16117;SDS011;8163;50.118;5.342;2023-07-24T12:20:01;0.10;;;0.10;;
16117;SDS011;8163;50.118;5.342;2023-07-24T12:22:29;0.03;;;0.03;;
16117;SDS011;8163;50.118;5.342;2023-07-24T12:24:56;0.10;;;0.10;;
16117;SDS011;8163;50.118;5.342;2023-07-24T12:27:25;0.10;;;0.10;;
16117;SDS011;8163;50.118;5.342;2023-07-24T12:29:52;0.10;;;0.10;;
16117;SDS011;8163;50.118;5.342;2023-07-24T12:32:19;0.10;;;0.10;;
16117;SDS011;8163;50.118;5.342;2023-07-24T12:34:50;0.10;;;0.10;;
16117;SDS011;8163;50.118;5.342;2023-07-24T12:37:18;0.15;;;0.15;;
16117;SDS011;8163;50.118;5.342;2023-07-24T12:39:45;0.13;;;0.13;;
16117;SDS011;8163;50.118;5.342;2023-07-24T12:42:13;0.20;;;0.20;;
16117;SDS011;8163;50.118;5.342;2023-07-24T12:44:40;0.40;;;0.40;;
16117;SDS011;8163;50.118;5.342;2023-07-24T12:47:09;0.20;;;0.20;;
16117;SDS011;8163;50.118;5.342;2023-07-24T12:49:37;0.13;;;0.13;;
16117;SDS011;8163;50.118;5.342;2023-07-24T12:52:06;0.30;;;0.30;;
16117;SDS011;8163;50.118;5.342;2023-07-24T12:54:34;0.20;;;0.20;;
16117;SDS011;8163;50.118;5.342;2023-07-24T12:57:01;0.13;;;0.13;;
16117;SDS011;8163;50.118;5.342;2023-07-24T12:59:28;0.15;;;0.15;;
16117;SDS011;8163;50.118;5.342;2023-07-24T13:01:58;0.20;;;0.20;;
16117;SDS011;8163;50.118;5.342;2023-07-24T13:04:25;0.20;;;0.20;;
16117;SDS011;8163;50.118;5.342;2023-07-24T13:06:55;0.20;;;0.20;;
16117;SDS011;8163;50.118;5.342;2023-07-24T13:09:25;0.20;;;0.20;;
16117;SDS011;8163;50.118;5.342;2023-07-24T13:11:54;0.20;;;0.20;;
16117;SDS011;8163;50.118;5.342;2023-07-24T13:14:21;0.20;;;0.20;;
16117;SDS011;8163;50.118;5.342;2023-07-24T13:16:48;0.20;;;0.20;;
16117;SDS011;8163;50.118;5.342;2023-07-24T13:19:17;0.20;;;0.20;;
16117;SDS011;8163;50.118;5.342;2023-07-24T13:21:44;0.20;;;0.20;;
16117;SDS011;8163;50.118;5.342;2023-07-24T13:24:12;0.20;;;0.20;;
16117;SDS011;8163;50.118;5.342;2023-07-24T13:26:40;0.22;;;0.22;;
16117;SDS011;8163;50.118;5.342;2023-07-24T13:29:07;0.20;;;0.20;;
16117;SDS011;8163;50.118;5.342;2023-07-24T13:31:34;0.20;;;0.20;;
16117;SDS011;8163;50.118;5.342;2023-07-24T13:34:03;0.20;;;0.20;;
16117;SDS011;8163;50.118;5.342;2023-07-24T13:36:30;0.30;;;0.30;;
16117;SDS011;8163;50.118;5.342;2023-07-24T13:38:56;0.20;;;0.20;;
16117;SDS011;8163;50.118;5.342;2023-07-24T13:41:23;0.30;;;0.30;;
16117;SDS011;8163;50.118;5.342;2023-07-24T13:43:53;0.20;;;0.20;;
16117;SDS011;8163;50.118;5.342;2023-07-24T13:46:20;0.30;;;0.30;;
16117;SDS011;8163;50.118;5.342;2023-07-24T13:48:48;0.20;;;0.20;;
16117;SDS011;8163;50.118;5.342;2023-07-24T13:51:15;0.20;;;0.20;;
16117;SDS011;8163;50.118;5.342;2023-07-24T13:53:42;0.20;;;0.20;;
16117;SDS011;8163;50.118;5.342;2023-07-24T13:56:11;0.20;;;0.20;;
16117;SDS011;8163;50.118;5.342;2023-07-24T13:58:39;0.22;;;0.22;;
16117;SDS011;8163;50.118;5.342;2023-07-24T14:01:08;0.20;;;0.20;;
16117;SDS011;8163;50.118;5.342;2023-07-24T14:03:35;0.10;;;0.10;;
16117;SDS011;8163;50.118;5.342;2023-07-24T14:06:02;0.10;;;0.10;;
16117;SDS011;8163;50.118;5.342;2023-07-24T14:08:30;0.20;;;0.20;;
16117;SDS011;8163;50.118;5.342;2023-07-24T14:10:57;0.20;;;0.20;;
16117;SDS011;8163;50.118;5.342;2023-07-24T14:13:25;0.20;;;0.20;;
16117;SDS011;8163;50.118;5.342;2023-07-24T14:15:52;0.20;;;0.20;;
16117;SDS011;8163;50.118;5.342;2023-07-24T14:18:21;0.10;;;0.10;;
16117;SDS011;8163;50.118;5.342;2023-07-24T14:20:49;0.20;;;0.20;;
16117;SDS011;8163;50.118;5.342;2023-07-24T14:23:20;0.20;;;0.20;;
16117;SDS011;8163;50.118;5.342;2023-07-24T14:25:47;0.20;;;0.20;;
16117;SDS011;8163;50.118;5.342;2023-07-24T14:28:15;0.20;;;0.20;;
16117;SDS011;8163;50.118;5.342;2023-07-24T14:30:42;0.20;;;0.20;;
16117;SDS011;8163;50.118;5.342;2023-07-24T14:33:09;0.20;;;0.20;;
16117;SDS011;8163;50.118;5.342;2023-07-24T14:35:37;0.20;;;0.20;;
16117;SDS011;8163;50.118;5.342;2023-07-24T14:38:05;0.20;;;0.20;;
16117;SDS011;8163;50.118;5.342;2023-07-24T14:40:32;0.20;;;0.20;;
16117;SDS011;8163;50.118;5.342;2023-07-24T14:42:59;0.30;;;0.30;;
16117;SDS011;8163;50.118;5.342;2023-07-24T14:45:27;0.20;;;0.20;;
16117;SDS011;8163;50.118;5.342;2023-07-24T14:47:54;0.10;;;0.10;;
16117;SDS011;8163;50.118;5.342;2023-07-24T14:50:22;0.20;;;0.20;;
16117;SDS011;8163;50.118;5.342;2023-07-24T14:52:52;0.20;;;0.20;;
16117;SDS011;8163;50.118;5.342;2023-07-24T14:55:21;0.10;;;0.10;;
16117;SDS011;8163;50.118;5.342;2023-07-24T14:57:48;0.20;;;0.20;;
16117;SDS011;8163;50.118;5.342;2023-07-24T15:00:16;0.20;;;0.20;;
16117;SDS011;8163;50.118;5.342;2023-07-24T15:02:43;0.20;;;0.20;;
16117;SDS011;8163;50.118;5.342;2023-07-24T15:05:10;0.20;;;0.20;;
16117;SDS011;8163;50.118;5.342;2023-07-24T15:07:37;0.20;;;0.20;;
16117;SDS011;8163;50.118;5.342;2023-07-24T15:10:07;0.30;;;0.30;;
16117;SDS011;8163;50.118;5.342;2023-07-24T15:12:34;0.20;;;0.20;;
16117;SDS011;8163;50.118;5.342;2023-07-24T15:15:02;0.20;;;0.20;;
16117;SDS011;8163;50.118;5.342;2023-07-24T15:17:31;0.30;;;0.30;;
16117;SDS011;8163;50.118;5.342;2023-07-24T15:19:59;0.30;;;0.30;;
16117;SDS011;8163;50.118;5.342;2023-07-24T15:22:26;0.28;;;0.28;;
16117;SDS011;8163;50.118;5.342;2023-07-24T15:24:53;0.20;;;0.20;;
16117;SDS011;8163;50.118;5.342;2023-07-24T15:27:23;0.30;;;0.30;;
16117;SDS011;8163;50.118;5.342;2023-07-24T15:29:50;0.20;;;0.20;;
16117;SDS011;8163;50.118;5.342;2023-07-24T15:32:18;0.20;;;0.20;;
16117;SDS011;8163;50.118;5.342;2023-07-24T15:34:47;0.20;;;0.20;;
16117;SDS011;8163;50.118;5.342;2023-07-24T15:37:14;0.20;;;0.20;;
16117;SDS011;8163;50.118;5.342;2023-07-24T15:39:40;0.10;;;0.10;;
16117;SDS011;8163;50.118;5.342;2023-07-24T15:42:08;0.20;;;0.20;;